Portada
METAR-TAF:

METAR-TAF

Aeroports :

Malden, Missouri, Estats Units d'Amèrica

latitud: 36-35-54N, longitud: 089-59-33W, altitud: 90 m

Observació

L'informe es va fer fa 22 minuts, a les 18:15 UTC
Vent 13 kt del Sud/Sud-Est
Temperatura 27°C
Humitat 62%
Pressió 1014 hPa
Visibilitat: 16.1 km
Cel ennuvolat a una alçada de 3800 ft

METAR: KMAW 261815Z AUTO 15013KT 10SM BKN038 27/19 A2993 RMK AO2

Hora: 13:37 (18:37 UTC)


TAF: manca

Observacions i pronòstics meteorològics de més de 4000 aeroports (METAR i TAF).

Les estacions disponibles són els punts grocs i vermells al mapa.

Posi el ratolí al punt desitjat per veure el nom de l'estació.

Feu clic per veure les observacions i els pronòstics meteorològics.

Per canviar el mapa: feu clic els botons verds amb una creu de color negre per apropar; al botó verd amb un guió per allunyar la imatge; o en les fletxes verdes per a mapes adjacents.


METAR-TAF: